sensor_id;sensor_type;location;lat;lon;timestamp;P1;durP1;ratioP1;P2;durP2;ratioP2
45206;SDS011;30950;53.086;21.576;2023-09-12T00:02:16;34.05;;;26.50;;
45206;SDS011;30950;53.086;21.576;2023-09-12T00:04:43;32.42;;;25.25;;
45206;SDS011;30950;53.086;21.576;2023-09-12T00:07:11;29.50;;;26.33;;
45206;SDS011;30950;53.086;21.576;2023-09-12T00:09:38;31.27;;;25.42;;
45206;SDS011;30950;53.086;21.576;2023-09-12T00:12:05;31.35;;;26.70;;
45206;SDS011;30950;53.086;21.576;2023-09-12T00:14:33;35.85;;;28.35;;
45206;SDS011;30950;53.086;21.576;2023-09-12T00:17:00;34.92;;;27.85;;
45206;SDS011;30950;53.086;21.576;2023-09-12T00:19:27;30.50;;;25.88;;
45206;SDS011;30950;53.086;21.576;2023-09-12T00:21:55;39.42;;;30.20;;
45206;SDS011;30950;53.086;21.576;2023-09-12T00:24:22;33.17;;;27.45;;
45206;SDS011;30950;53.086;21.576;2023-09-12T00:26:49;33.30;;;27.52;;
45206;SDS011;30950;53.086;21.576;2023-09-12T00:29:17;32.15;;;27.95;;
45206;SDS011;30950;53.086;21.576;2023-09-12T00:31:45;35.28;;;27.95;;
45206;SDS011;30950;53.086;21.576;2023-09-12T00:34:16;37.92;;;27.13;;
45206;SDS011;30950;53.086;21.576;2023-09-12T00:36:44;34.03;;;29.25;;
45206;SDS011;30950;53.086;21.576;2023-09-12T00:39:11;32.30;;;25.83;;
45206;SDS011;30950;53.086;21.576;2023-09-12T00:41:39;29.15;;;23.92;;
45206;SDS011;30950;53.086;21.576;2023-09-12T00:44:06;29.60;;;25.95;;
45206;SDS011;30950;53.086;21.576;2023-09-12T00:46:34;31.30;;;26.02;;
45206;SDS011;30950;53.086;21.576;2023-09-12T00:49:03;34.67;;;26.80;;
45206;SDS011;30950;53.086;21.576;2023-09-12T00:51:34;30.23;;;25.70;;
45206;SDS011;30950;53.086;21.576;2023-09-12T00:54:03;32.20;;;25.60;;
45206;SDS011;30950;53.086;21.576;2023-09-12T00:56:30;37.25;;;27.45;;
45206;SDS011;30950;53.086;21.576;2023-09-12T00:58:59;31.58;;;25.80;;
45206;SDS011;30950;53.086;21.576;2023-09-12T01:01:27;33.42;;;26.95;;
45206;SDS011;30950;53.086;21.576;2023-09-12T01:03:55;31.63;;;25.75;;
45206;SDS011;30950;53.086;21.576;2023-09-12T01:06:23;32.03;;;25.13;;
45206;SDS011;30950;53.086;21.576;2023-09-12T01:08:55;31.33;;;25.13;;
45206;SDS011;30950;53.086;21.576;2023-09-12T01:11:22;35.50;;;26.50;;
45206;SDS011;30950;53.086;21.576;2023-09-12T01:13:51;31.08;;;26.85;;
45206;SDS011;30950;53.086;21.576;2023-09-12T01:16:18;34.20;;;27.95;;
45206;SDS011;30950;53.086;21.576;2023-09-12T01:18:45;32.53;;;26.23;;
45206;SDS011;30950;53.086;21.576;2023-09-12T01:28:57;28.80;;;25.70;;
45206;SDS011;30950;53.086;21.576;2023-09-12T01:31:25;30.67;;;27.33;;
45206;SDS011;30950;53.086;21.576;2023-09-12T01:33:56;32.58;;;27.45;;
45206;SDS011;30950;53.086;21.576;2023-09-12T01:36:24;33.58;;;27.85;;
45206;SDS011;30950;53.086;21.576;2023-09-12T01:38:52;31.63;;;27.20;;
45206;SDS011;30950;53.086;21.576;2023-09-12T01:41:19;28.30;;;25.30;;
45206;SDS011;30950;53.086;21.576;2023-09-12T01:43:47;31.45;;;26.83;;
45206;SDS011;30950;53.086;21.576;2023-09-12T01:46:16;36.35;;;28.27;;
45206;SDS011;30950;53.086;21.576;2023-09-12T01:48:45;34.17;;;29.40;;
45206;SDS011;30950;53.086;21.576;2023-09-12T01:51:18;30.40;;;26.88;;
45206;SDS011;30950;53.086;21.576;2023-09-12T01:53:46;31.40;;;26.85;;
45206;SDS011;30950;53.086;21.576;2023-09-12T01:56:15;29.98;;;26.88;;
45206;SDS011;30950;53.086;21.576;2023-09-12T01:58:44;31.67;;;27.33;;
45206;SDS011;30950;53.086;21.576;2023-09-12T02:01:12;28.15;;;24.98;;
45206;SDS011;30950;53.086;21.576;2023-09-12T02:03:39;33.38;;;27.58;;
45206;SDS011;30950;53.086;21.576;2023-09-12T02:06:07;29.65;;;24.25;;
45206;SDS011;30950;53.086;21.576;2023-09-12T02:08:34;32.33;;;24.77;;
45206;SDS011;30950;53.086;21.576;2023-09-12T02:11:01;32.67;;;27.40;;
45206;SDS011;30950;53.086;21.576;2023-09-12T02:13:29;28.38;;;25.38;;
45206;SDS011;30950;53.086;21.576;2023-09-12T02:15:59;29.90;;;25.85;;
45206;SDS011;30950;53.086;21.576;2023-09-12T02:18:27;27.70;;;24.08;;
45206;SDS011;30950;53.086;21.576;2023-09-12T02:20:55;29.33;;;26.20;;
45206;SDS011;30950;53.086;21.576;2023-09-12T02:23:24;29.90;;;26.73;;
45206;SDS011;30950;53.086;21.576;2023-09-12T02:25:52;30.52;;;25.42;;
45206;SDS011;30950;53.086;21.576;2023-09-12T02:28:19;31.98;;;25.73;;
45206;SDS011;30950;53.086;21.576;2023-09-12T02:30:46;30.05;;;25.20;;
45206;SDS011;30950;53.086;21.576;2023-09-12T02:33:14;31.15;;;26.52;;
45206;SDS011;30950;53.086;21.576;2023-09-12T02:35:41;32.03;;;26.60;;
45206;SDS011;30950;53.086;21.576;2023-09-12T02:38:09;29.75;;;25.75;;
45206;SDS011;30950;53.086;21.576;2023-09-12T02:40:37;31.80;;;28.35;;
45206;SDS011;30950;53.086;21.576;2023-09-12T02:43:04;30.30;;;26.35;;
45206;SDS011;30950;53.086;21.576;2023-09-12T02:45:32;36.53;;;28.00;;
45206;SDS011;30950;53.086;21.576;2023-09-12T02:47:59;30.52;;;27.20;;
45206;SDS011;30950;53.086;21.576;2023-09-12T02:50:27;29.60;;;26.38;;
45206;SDS011;30950;53.086;21.576;2023-09-12T02:52:55;31.20;;;27.48;;
45206;SDS011;30950;53.086;21.576;2023-09-12T02:55:22;34.03;;;27.70;;
45206;SDS011;30950;53.086;21.576;2023-09-12T02:57:50;29.92;;;25.92;;
45206;SDS011;30950;53.086;21.576;2023-09-12T03:00:18;31.60;;;26.98;;
45206;SDS011;30950;53.086;21.576;2023-09-12T03:02:46;29.38;;;26.42;;
45206;SDS011;30950;53.086;21.576;2023-09-12T03:05:14;31.77;;;26.98;;
45206;SDS011;30950;53.086;21.576;2023-09-12T03:07:41;31.55;;;26.70;;
45206;SDS011;30950;53.086;21.576;2023-09-12T03:10:09;32.10;;;27.60;;
45206;SDS011;30950;53.086;21.576;2023-09-12T03:12:36;26.70;;;23.92;;
45206;SDS011;30950;53.086;21.576;2023-09-12T03:15:04;29.35;;;26.13;;
45206;SDS011;30950;53.086;21.576;2023-09-12T03:17:35;29.23;;;26.13;;
45206;SDS011;30950;53.086;21.576;2023-09-12T03:20:03;30.88;;;26.13;;
45206;SDS011;30950;53.086;21.576;2023-09-12T03:22:36;31.63;;;25.67;;
45206;SDS011;30950;53.086;21.576;2023-09-12T03:25:06;31.90;;;26.75;;
45206;SDS011;30950;53.086;21.576;2023-09-12T03:27:33;30.75;;;25.67;;
45206;SDS011;30950;53.086;21.576;2023-09-12T03:30:01;32.10;;;27.30;;
45206;SDS011;30950;53.086;21.576;2023-09-12T03:32:28;34.10;;;27.02;;
45206;SDS011;30950;53.086;21.576;2023-09-12T03:34:55;31.70;;;28.30;;
45206;SDS011;30950;53.086;21.576;2023-09-12T03:37:23;38.45;;;29.60;;
45206;SDS011;30950;53.086;21.576;2023-09-12T03:39:54;32.03;;;28.63;;
45206;SDS011;30950;53.086;21.576;2023-09-12T03:42:21;29.75;;;26.20;;
45206;SDS011;30950;53.086;21.576;2023-09-12T03:44:53;31.20;;;27.67;;
45206;SDS011;30950;53.086;21.576;2023-09-12T03:47:20;28.92;;;25.83;;
45206;SDS011;30950;53.086;21.576;2023-09-12T03:49:48;30.60;;;25.83;;
45206;SDS011;30950;53.086;21.576;2023-09-12T03:52:15;31.98;;;25.85;;
45206;SDS011;30950;53.086;21.576;2023-09-12T03:54:43;30.95;;;27.55;;
45206;SDS011;30950;53.086;21.576;2023-09-12T03:57:10;31.17;;;27.90;;
45206;SDS011;30950;53.086;21.576;2023-09-12T03:59:38;31.58;;;26.80;;
45206;SDS011;30950;53.086;21.576;2023-09-12T04:02:05;35.63;;;27.42;;
45206;SDS011;30950;53.086;21.576;2023-09-12T04:04:33;32.05;;;27.25;;
45206;SDS011;30950;53.086;21.576;2023-09-12T04:07:00;31.13;;;25.60;;
45206;SDS011;30950;53.086;21.576;2023-09-12T04:09:28;29.10;;;25.98;;
45206;SDS011;30950;53.086;21.576;2023-09-12T04:11:55;29.95;;;25.90;;
45206;SDS011;30950;53.086;21.576;2023-09-12T04:14:23;30.85;;;25.83;;
45206;SDS011;30950;53.086;21.576;2023-09-12T04:16:50;27.33;;;22.45;;
45206;SDS011;30950;53.086;21.576;2023-09-12T04:19:17;29.60;;;23.08;;
45206;SDS011;30950;53.086;21.576;2023-09-12T04:21:45;25.33;;;22.60;;
45206;SDS011;30950;53.086;21.576;2023-09-12T04:24:12;25.33;;;20.63;;
45206;SDS011;30950;53.086;21.576;2023-09-12T04:26:40;26.85;;;21.38;;
45206;SDS011;30950;53.086;21.576;2023-09-12T04:29:07;25.20;;;20.98;;
45206;SDS011;30950;53.086;21.576;2023-09-12T04:31:34;27.83;;;22.20;;
45206;SDS011;30950;53.086;21.576;2023-09-12T04:34:02;26.30;;;22.75;;
45206;SDS011;30950;53.086;21.576;2023-09-12T04:36:29;25.10;;;22.00;;
45206;SDS011;30950;53.086;21.576;2023-09-12T04:38:57;23.23;;;19.73;;
45206;SDS011;30950;53.086;21.576;2023-09-12T04:41:24;25.75;;;20.23;;
45206;SDS011;30950;53.086;21.576;2023-09-12T04:43:51;26.85;;;22.05;;
45206;SDS011;30950;53.086;21.576;2023-09-12T04:46:19;27.67;;;21.55;;
45206;SDS011;30950;53.086;21.576;2023-09-12T04:48:47;25.45;;;22.85;;
45206;SDS011;30950;53.086;21.576;2023-09-12T04:51:14;27.88;;;23.25;;
45206;SDS011;30950;53.086;21.576;2023-09-12T04:53:42;26.52;;;23.77;;
45206;SDS011;30950;53.086;21.576;2023-09-12T04:56:11;25.58;;;22.50;;
45206;SDS011;30950;53.086;21.576;2023-09-12T04:58:39;28.92;;;21.95;;
45206;SDS011;30950;53.086;21.576;2023-09-12T05:01:07;23.02;;;20.58;;
45206;SDS011;30950;53.086;21.576;2023-09-12T05:03:34;26.27;;;21.25;;
45206;SDS011;30950;53.086;21.576;2023-09-12T05:06:02;28.10;;;22.63;;
45206;SDS011;30950;53.086;21.576;2023-09-12T05:08:30;26.90;;;21.73;;
45206;SDS011;30950;53.086;21.576;2023-09-12T05:10:58;25.35;;;22.67;;
45206;SDS011;30950;53.086;21.576;2023-09-12T05:13:25;26.95;;;22.98;;
45206;SDS011;30950;53.086;21.576;2023-09-12T05:15:52;27.27;;;23.65;;
45206;SDS011;30950;53.086;21.576;2023-09-12T05:18:20;25.73;;;22.77;;
45206;SDS011;30950;53.086;21.576;2023-09-12T05:20:48;25.67;;;22.65;;
45206;SDS011;30950;53.086;21.576;2023-09-12T05:23:16;28.15;;;23.80;;
45206;SDS011;30950;53.086;21.576;2023-09-12T05:25:44;25.92;;;21.70;;
45206;SDS011;30950;53.086;21.576;2023-09-12T05:28:11;27.30;;;20.05;;
45206;SDS011;30950;53.086;21.576;2023-09-12T05:30:45;22.67;;;20.20;;
45206;SDS011;30950;53.086;21.576;2023-09-12T05:33:13;23.80;;;21.27;;
45206;SDS011;30950;53.086;21.576;2023-09-12T05:35:41;24.88;;;19.55;;
45206;SDS011;30950;53.086;21.576;2023-09-12T05:38:09;23.50;;;21.02;;
45206;SDS011;30950;53.086;21.576;2023-09-12T05:40:36;27.08;;;23.13;;
45206;SDS011;30950;53.086;21.576;2023-09-12T05:43:04;25.85;;;23.08;;
45206;SDS011;30950;53.086;21.576;2023-09-12T05:45:31;28.42;;;22.58;;
45206;SDS011;30950;53.086;21.576;2023-09-12T05:48:00;28.98;;;25.58;;
45206;SDS011;30950;53.086;21.576;2023-09-12T05:50:31;31.52;;;25.73;;
45206;SDS011;30950;53.086;21.576;2023-09-12T05:52:58;29.65;;;24.98;;
45206;SDS011;30950;53.086;21.576;2023-09-12T05:55:26;38.22;;;28.55;;
45206;SDS011;30950;53.086;21.576;2023-09-12T05:57:53;33.45;;;29.35;;
45206;SDS011;30950;53.086;21.576;2023-09-12T06:00:21;33.25;;;29.55;;
45206;SDS011;30950;53.086;21.576;2023-09-12T06:02:49;30.10;;;26.20;;
45206;SDS011;30950;53.086;21.576;2023-09-12T06:05:16;33.17;;;25.48;;
45206;SDS011;30950;53.086;21.576;2023-09-12T06:07:44;33.25;;;29.50;;
45206;SDS011;30950;53.086;21.576;2023-09-12T06:10:13;38.30;;;30.13;;
45206;SDS011;30950;53.086;21.576;2023-09-12T06:12:41;34.00;;;30.48;;
45206;SDS011;30950;53.086;21.576;2023-09-12T06:15:08;32.03;;;28.63;;
45206;SDS011;30950;53.086;21.576;2023-09-12T06:17:36;35.67;;;30.15;;
45206;SDS011;30950;53.086;21.576;2023-09-12T06:20:04;34.40;;;30.67;;
45206;SDS011;30950;53.086;21.576;2023-09-12T06:22:35;36.80;;;32.85;;
45206;SDS011;30950;53.086;21.576;2023-09-12T06:25:02;37.70;;;32.10;;
45206;SDS011;30950;53.086;21.576;2023-09-12T06:27:30;34.08;;;30.65;;
45206;SDS011;30950;53.086;21.576;2023-09-12T06:29:58;37.00;;;30.13;;
45206;SDS011;30950;53.086;21.576;2023-09-12T06:32:26;35.78;;;29.27;;
45206;SDS011;30950;53.086;21.576;2023-09-12T06:34:53;36.67;;;30.92;;
45206;SDS011;30950;53.086;21.576;2023-09-12T06:37:20;31.55;;;28.00;;
45206;SDS011;30950;53.086;21.576;2023-09-12T06:39:51;35.10;;;30.85;;
45206;SDS011;30950;53.086;21.576;2023-09-12T06:42:18;35.20;;;29.90;;
45206;SDS011;30950;53.086;21.576;2023-09-12T06:44:46;31.42;;;28.13;;
45206;SDS011;30950;53.086;21.576;2023-09-12T06:47:13;32.97;;;28.70;;
45206;SDS011;30950;53.086;21.576;2023-09-12T06:49:41;31.08;;;27.73;;
45206;SDS011;30950;53.086;21.576;2023-09-12T06:52:08;31.30;;;27.45;;
45206;SDS011;30950;53.086;21.576;2023-09-12T06:54:37;34.35;;;25.85;;
45206;SDS011;30950;53.086;21.576;2023-09-12T06:57:04;29.35;;;26.35;;
45206;SDS011;30950;53.086;21.576;2023-09-12T06:59:32;30.85;;;26.75;;
45206;SDS011;30950;53.086;21.576;2023-09-12T07:01:59;30.10;;;26.27;;
45206;SDS011;30950;53.086;21.576;2023-09-12T07:04:26;29.67;;;26.58;;
45206;SDS011;30950;53.086;21.576;2023-09-12T07:06:54;30.80;;;26.77;;
45206;SDS011;30950;53.086;21.576;2023-09-12T07:09:21;30.25;;;26.88;;
45206;SDS011;30950;53.086;21.576;2023-09-12T07:11:50;33.08;;;29.45;;
45206;SDS011;30950;53.086;21.576;2023-09-12T07:14:18;30.60;;;27.50;;
45206;SDS011;30950;53.086;21.576;2023-09-12T07:16:45;32.17;;;29.02;;
45206;SDS011;30950;53.086;21.576;2023-09-12T07:19:13;27.70;;;24.33;;
45206;SDS011;30950;53.086;21.576;2023-09-12T07:21:40;31.65;;;28.30;;
45206;SDS011;30950;53.086;21.576;2023-09-12T07:24:07;26.05;;;22.70;;
45206;SDS011;30950;53.086;21.576;2023-09-12T07:26:35;26.90;;;24.08;;
45206;SDS011;30950;53.086;21.576;2023-09-12T07:29:02;29.20;;;23.80;;
45206;SDS011;30950;53.086;21.576;2023-09-12T07:31:32;25.35;;;22.52;;
45206;SDS011;30950;53.086;21.576;2023-09-12T07:33:59;26.95;;;24.13;;
45206;SDS011;30950;53.086;21.576;2023-09-12T07:36:27;29.77;;;19.98;;
45206;SDS011;30950;53.086;21.576;2023-09-12T07:38:54;25.88;;;21.67;;
45206;SDS011;30950;53.086;21.576;2023-09-12T07:41:22;19.80;;;16.33;;
45206;SDS011;30950;53.086;21.576;2023-09-12T07:43:49;19.63;;;16.33;;
45206;SDS011;30950;53.086;21.576;2023-09-12T07:46:16;17.63;;;15.20;;
45206;SDS011;30950;53.086;21.576;2023-09-12T07:48:44;25.25;;;20.10;;
45206;SDS011;30950;53.086;21.576;2023-09-12T07:51:15;29.38;;;21.50;;
45206;SDS011;30950;53.086;21.576;2023-09-12T07:53:44;19.65;;;16.27;;
45206;SDS011;30950;53.086;21.576;2023-09-12T07:56:12;17.30;;;15.43;;
45206;SDS011;30950;53.086;21.576;2023-09-12T07:58:39;25.25;;;19.80;;
45206;SDS011;30950;53.086;21.576;2023-09-12T08:01:07;21.17;;;18.23;;
45206;SDS011;30950;53.086;21.576;2023-09-12T08:03:37;16.33;;;13.02;;
45206;SDS011;30950;53.086;21.576;2023-09-12T08:06:06;24.40;;;17.58;;
45206;SDS011;30950;53.086;21.576;2023-09-12T08:08:34;21.33;;;15.55;;
45206;SDS011;30950;53.086;21.576;2023-09-12T08:11:02;20.38;;;17.30;;
45206;SDS011;30950;53.086;21.576;2023-09-12T08:13:29;20.10;;;18.02;;
45206;SDS011;30950;53.086;21.576;2023-09-12T08:15:57;22.10;;;19.70;;
45206;SDS011;30950;53.086;21.576;2023-09-12T08:18:26;21.63;;;18.98;;
45206;SDS011;30950;53.086;21.576;2023-09-12T08:21:00;17.10;;;15.25;;
45206;SDS011;30950;53.086;21.576;2023-09-12T08:23:28;16.35;;;12.43;;
45206;SDS011;30950;53.086;21.576;2023-09-12T08:25:56;19.55;;;16.05;;
45206;SDS011;30950;53.086;21.576;2023-09-12T08:28:23;16.70;;;15.00;;
45206;SDS011;30950;53.086;21.576;2023-09-12T08:30:51;20.80;;;17.88;;
45206;SDS011;30950;53.086;21.576;2023-09-12T08:33:18;21.85;;;17.83;;
45206;SDS011;30950;53.086;21.576;2023-09-12T08:35:49;17.70;;;15.23;;
45206;SDS011;30950;53.086;21.576;2023-09-12T08:38:17;20.38;;;18.30;;
45206;SDS011;30950;53.086;21.576;2023-09-12T08:40:48;14.25;;;12.05;;
45206;SDS011;30950;53.086;21.576;2023-09-12T08:43:17;18.83;;;16.50;;
45206;SDS011;30950;53.086;21.576;2023-09-12T08:45:45;14.63;;;12.40;;
45206;SDS011;30950;53.086;21.576;2023-09-12T08:48:14;12.38;;;11.07;;
45206;SDS011;30950;53.086;21.576;2023-09-12T08:50:43;23.70;;;20.30;;
45206;SDS011;30950;53.086;21.576;2023-09-12T08:53:12;19.75;;;15.48;;
45206;SDS011;30950;53.086;21.576;2023-09-12T08:55:40;16.55;;;11.35;;
45206;SDS011;30950;53.086;21.576;2023-09-12T08:58:08;14.82;;;12.95;;
45206;SDS011;30950;53.086;21.576;2023-09-12T09:00:35;14.60;;;12.30;;
45206;SDS011;30950;53.086;21.576;2023-09-12T09:03:04;11.48;;;10.02;;
45206;SDS011;30950;53.086;21.576;2023-09-12T09:05:32;19.65;;;14.60;;
45206;SDS011;30950;53.086;21.576;2023-09-12T09:08:01;14.73;;;10.55;;
45206;SDS011;30950;53.086;21.576;2023-09-12T09:10:30;14.25;;;12.23;;
45206;SDS011;30950;53.086;21.576;2023-09-12T09:13:16;14.07;;;10.27;;
45206;SDS011;30950;53.086;21.576;2023-09-12T09:15:45;14.25;;;12.85;;
45206;SDS011;30950;53.086;21.576;2023-09-12T09:18:13;17.25;;;12.18;;
45206;SDS011;30950;53.086;21.576;2023-09-12T09:20:40;12.30;;;10.82;;
45206;SDS011;30950;53.086;21.576;2023-09-12T09:23:09;14.93;;;11.68;;
45206;SDS011;30950;53.086;21.576;2023-09-12T09:25:41;14.80;;;12.32;;
45206;SDS011;30950;53.086;21.576;2023-09-12T09:28:17;16.65;;;14.93;;
45206;SDS011;30950;53.086;21.576;2023-09-12T09:30:46;14.23;;;12.65;;
45206;SDS011;30950;53.086;21.576;2023-09-12T09:33:15;10.70;;;9.50;;
45206;SDS011;30950;53.086;21.576;2023-09-12T09:35:46;13.50;;;10.23;;
45206;SDS011;30950;53.086;21.576;2023-09-12T09:38:15;15.27;;;11.88;;
45206;SDS011;30950;53.086;21.576;2023-09-12T09:40:46;17.92;;;13.40;;
45206;SDS011;30950;53.086;21.576;2023-09-12T09:43:13;17.10;;;13.15;;
45206;SDS011;30950;53.086;21.576;2023-09-12T09:45:47;12.65;;;9.85;;
45206;SDS011;30950;53.086;21.576;2023-09-12T09:48:22;14.05;;;12.23;;
45206;SDS011;30950;53.086;21.576;2023-09-12T09:50:50;10.82;;;9.75;;
45206;SDS011;30950;53.086;21.576;2023-09-12T09:53:29;11.65;;;10.48;;
45206;SDS011;30950;53.086;21.576;2023-09-12T09:56:18;11.13;;;9.82;;
45206;SDS011;30950;53.086;21.576;2023-09-12T09:58:48;11.50;;;10.32;;
45206;SDS011;30950;53.086;21.576;2023-09-12T10:01:21;12.63;;;11.32;;
45206;SDS011;30950;53.086;21.576;2023-09-12T10:03:50;14.55;;;11.82;;
45206;SDS011;30950;53.086;21.576;2023-09-12T10:06:18;13.25;;;11.95;;
45206;SDS011;30950;53.086;21.576;2023-09-12T10:08:51;11.50;;;9.70;;
45206;SDS011;30950;53.086;21.576;2023-09-12T10:11:24;14.63;;;12.50;;
45206;SDS011;30950;53.086;21.576;2023-09-12T10:13:55;14.20;;;12.30;;
45206;SDS011;30950;53.086;21.576;2023-09-12T10:16:24;13.65;;;9.85;;
45206;SDS011;30950;53.086;21.576;2023-09-12T10:21:58;13.98;;;12.68;;
45206;SDS011;30950;53.086;21.576;2023-09-12T10:24:33;12.45;;;10.40;;
45206;SDS011;30950;53.086;21.576;2023-09-12T10:27:03;14.55;;;10.70;;
45206;SDS011;30950;53.086;21.576;2023-09-12T10:29:31;11.60;;;10.40;;
45206;SDS011;30950;53.086;21.576;2023-09-12T10:31:59;12.43;;;10.60;;
45206;SDS011;30950;53.086;21.576;2023-09-12T10:34:26;11.93;;;9.80;;
45206;SDS011;30950;53.086;21.576;2023-09-12T10:36:58;10.20;;;8.85;;
45206;SDS011;30950;53.086;21.576;2023-09-12T10:39:31;12.60;;;10.48;;
45206;SDS011;30950;53.086;21.576;2023-09-12T10:41:59;13.18;;;11.13;;
45206;SDS011;30950;53.086;21.576;2023-09-12T10:44:31;10.55;;;8.90;;
45206;SDS011;30950;53.086;21.576;2023-09-12T10:47:00;9.63;;;8.63;;
45206;SDS011;30950;53.086;21.576;2023-09-12T10:49:31;10.77;;;9.65;;
45206;SDS011;30950;53.086;21.576;2023-09-12T10:51:59;14.43;;;8.90;;
45206;SDS011;30950;53.086;21.576;2023-09-12T10:54:37;9.82;;;8.70;;
45206;SDS011;30950;53.086;21.576;2023-09-12T10:57:06;9.55;;;8.50;;
45206;SDS011;30950;53.086;21.576;2023-09-12T10:59:35;11.35;;;9.13;;
45206;SDS011;30950;53.086;21.576;2023-09-12T11:04:59;11.38;;;8.80;;
45206;SDS011;30950;53.086;21.576;2023-09-12T11:07:43;9.88;;;8.88;;
45206;SDS011;30950;53.086;21.576;2023-09-12T11:12:42;9.80;;;8.27;;
45206;SDS011;30950;53.086;21.576;2023-09-12T11:15:10;12.63;;;10.82;;
45206;SDS011;30950;53.086;21.576;2023-09-12T11:17:39;11.60;;;9.65;;
45206;SDS011;30950;53.086;21.576;2023-09-12T11:20:07;11.88;;;9.32;;
45206;SDS011;30950;53.086;21.576;2023-09-12T11:22:45;9.73;;;8.73;;
45206;SDS011;30950;53.086;21.576;2023-09-12T11:25:21;10.63;;;8.60;;
45206;SDS011;30950;53.086;21.576;2023-09-12T11:30:17;11.98;;;9.55;;
45206;SDS011;30950;53.086;21.576;2023-09-12T11:32:47;12.70;;;10.10;;
45206;SDS011;30950;53.086;21.576;2023-09-12T11:35:21;9.75;;;8.75;;
45206;SDS011;30950;53.086;21.576;2023-09-12T11:37:51;12.10;;;10.82;;
45206;SDS011;30950;53.086;21.576;2023-09-12T11:40:41;9.98;;;8.98;;
45206;SDS011;30950;53.086;21.576;2023-09-12T11:43:21;11.57;;;9.38;;
45206;SDS011;30950;53.086;21.576;2023-09-12T11:45:54;10.18;;;9.18;;
45206;SDS011;30950;53.086;21.576;2023-09-12T11:48:23;10.35;;;9.35;;
45206;SDS011;30950;53.086;21.576;2023-09-12T11:50:52;10.98;;;9.88;;
45206;SDS011;30950;53.086;21.576;2023-09-12T11:53:24;17.05;;;9.05;;
45206;SDS011;30950;53.086;21.576;2023-09-12T11:55:54;10.90;;;9.43;;
45206;SDS011;30950;53.086;21.576;2023-09-12T11:58:24;12.60;;;10.00;;
45206;SDS011;30950;53.086;21.576;2023-09-12T12:00:56;17.33;;;9.05;;
45206;SDS011;30950;53.086;21.576;2023-09-12T12:03:27;10.25;;;9.25;;
45206;SDS011;30950;53.086;21.576;2023-09-12T12:05:55;10.48;;;9.48;;
45206;SDS011;30950;53.086;21.576;2023-09-12T12:08:23;12.95;;;9.82;;
45206;SDS011;30950;53.086;21.576;2023-09-12T12:10:54;13.35;;;9.38;;
45206;SDS011;30950;53.086;21.576;2023-09-12T12:13:22;12.05;;;8.98;;
45206;SDS011;30950;53.086;21.576;2023-09-12T12:15:50;12.90;;;9.82;;
45206;SDS011;30950;53.086;21.576;2023-09-12T12:18:18;11.98;;;10.77;;
45206;SDS011;30950;53.086;21.576;2023-09-12T12:20:45;10.50;;;9.32;;
45206;SDS011;30950;53.086;21.576;2023-09-12T12:23:13;10.85;;;9.75;;
45206;SDS011;30950;53.086;21.576;2023-09-12T12:25:40;13.27;;;9.45;;
45206;SDS011;30950;53.086;21.576;2023-09-12T12:28:08;10.02;;;8.90;;
45206;SDS011;30950;53.086;21.576;2023-09-12T12:30:35;11.95;;;9.85;;
45206;SDS011;30950;53.086;21.576;2023-09-12T12:33:08;11.48;;;9.30;;
45206;SDS011;30950;53.086;21.576;2023-09-12T12:35:59;15.00;;;10.13;;
45206;SDS011;30950;53.086;21.576;2023-09-12T12:41:06;16.48;;;10.63;;
45206;SDS011;30950;53.086;21.576;2023-09-12T12:43:33;11.75;;;9.43;;
45206;SDS011;30950;53.086;21.576;2023-09-12T12:46:01;10.25;;;9.23;;
45206;SDS011;30950;53.086;21.576;2023-09-12T12:48:32;13.85;;;10.25;;
45206;SDS011;30950;53.086;21.576;2023-09-12T12:53:47;10.15;;;8.63;;
45206;SDS011;30950;53.086;21.576;2023-09-12T12:56:23;10.80;;;7.97;;
45206;SDS011;30950;53.086;21.576;2023-09-12T12:58:58;11.43;;;8.90;;
45206;SDS011;30950;53.086;21.576;2023-09-12T13:01:29;10.13;;;9.00;;
45206;SDS011;30950;53.086;21.576;2023-09-12T13:03:58;10.77;;;8.30;;
45206;SDS011;30950;53.086;21.576;2023-09-12T13:06:25;11.88;;;9.82;;
45206;SDS011;30950;53.086;21.576;2023-09-12T13:08:55;12.35;;;7.95;;
45206;SDS011;30950;53.086;21.576;2023-09-12T13:11:24;11.75;;;10.35;;
45206;SDS011;30950;53.086;21.576;2023-09-12T13:13:51;16.25;;;12.27;;
45206;SDS011;30950;53.086;21.576;2023-09-12T13:16:19;10.25;;;8.50;;
45206;SDS011;30950;53.086;21.576;2023-09-12T13:18:46;10.77;;;8.90;;
45206;SDS011;30950;53.086;21.576;2023-09-12T13:21:14;10.77;;;9.68;;
45206;SDS011;30950;53.086;21.576;2023-09-12T13:23:41;10.52;;;9.52;;
45206;SDS011;30950;53.086;21.576;2023-09-12T13:26:09;10.90;;;8.30;;
45206;SDS011;30950;53.086;21.576;2023-09-12T13:28:37;11.40;;;8.00;;
45206;SDS011;30950;53.086;21.576;2023-09-12T13:31:04;9.90;;;8.77;;
45206;SDS011;30950;53.086;21.576;2023-09-12T13:33:32;8.80;;;7.88;;
45206;SDS011;30950;53.086;21.576;2023-09-12T13:36:00;10.70;;;8.43;;
45206;SDS011;30950;53.086;21.576;2023-09-12T13:38:27;14.70;;;10.73;;
45206;SDS011;30950;53.086;21.576;2023-09-12T13:40:55;10.95;;;9.48;;
45206;SDS011;30950;53.086;21.576;2023-09-12T13:43:23;11.02;;;8.80;;
45206;SDS011;30950;53.086;21.576;2023-09-12T13:45:50;8.93;;;8.02;;
45206;SDS011;30950;53.086;21.576;2023-09-12T13:48:17;13.80;;;8.40;;
45206;SDS011;30950;53.086;21.576;2023-09-12T13:50:45;9.32;;;8.10;;
45206;SDS011;30950;53.086;21.576;2023-09-12T13:53:13;10.60;;;8.88;;
45206;SDS011;30950;53.086;21.576;2023-09-12T13:55:41;8.70;;;7.82;;
45206;SDS011;30950;53.086;21.576;2023-09-12T13:58:12;12.10;;;9.15;;
45206;SDS011;30950;53.086;21.576;2023-09-12T14:00:39;10.88;;;8.23;;
45206;SDS011;30950;53.086;21.576;2023-09-12T14:03:07;12.10;;;7.60;;
45206;SDS011;30950;53.086;21.576;2023-09-12T14:05:35;9.77;;;8.77;;
45206;SDS011;30950;53.086;21.576;2023-09-12T14:08:03;10.10;;;8.90;;
45206;SDS011;30950;53.086;21.576;2023-09-12T14:10:31;10.30;;;8.02;;
45206;SDS011;30950;53.086;21.576;2023-09-12T14:13:04;8.77;;;7.95;;
45206;SDS011;30950;53.086;21.576;2023-09-12T14:15:47;10.05;;;9.10;;
45206;SDS011;30950;53.086;21.576;2023-09-12T14:18:18;11.18;;;9.48;;
45206;SDS011;30950;53.086;21.576;2023-09-12T14:20:48;11.52;;;10.02;;
45206;SDS011;30950;53.086;21.576;2023-09-12T14:23:19;17.98;;;16.02;;
45206;SDS011;30950;53.086;21.576;2023-09-12T14:25:48;10.48;;;9.20;;
45206;SDS011;30950;53.086;21.576;2023-09-12T14:28:16;10.35;;;9.23;;
45206;SDS011;30950;53.086;21.576;2023-09-12T14:30:45;10.63;;;9.00;;
45206;SDS011;30950;53.086;21.576;2023-09-12T14:33:13;9.18;;;8.25;;
45206;SDS011;30950;53.086;21.576;2023-09-12T14:35:44;12.65;;;11.23;;
45206;SDS011;30950;53.086;21.576;2023-09-12T14:38:12;11.15;;;9.10;;
45206;SDS011;30950;53.086;21.576;2023-09-12T14:40:39;10.52;;;9.43;;
45206;SDS011;30950;53.086;21.576;2023-09-12T14:43:11;12.98;;;10.07;;
45206;SDS011;30950;53.086;21.576;2023-09-12T14:45:38;10.90;;;9.63;;
45206;SDS011;30950;53.086;21.576;2023-09-12T14:48:06;12.88;;;9.85;;